Wetterdaten: Montag, 10.03.2014
Datum Zeit Temperatur Luftfeuchte Luftdruck Regen Wind Richtung Richtung Sonnenschein ET UV Solar Taupunkt Windchill Windben
10.03.2014 00:00 2,3 C 82 % 1028,9 hPa 0,0 l/m 0,0 km/h (0 Bft) O 96 0 min 0,000 mm 0,0 UV-I 0 W/m -0,4 C 2,3 C 0,0 km/h (0 Bft)
10.03.2014 00:05 2,2 C 82 % 1028,9 hPa 0,0 l/m 0,0 km/h (0 Bft) O 96 0 min 0,000 mm 0,0 UV-I 0 W/m -0,5 C 2,2 C 0,0 km/h (0 Bft)
10.03.2014 00:10 2,1 C 83 % 1028,9 hPa 0,0 l/m 0,0 km/h (0 Bft) O 96 0 min 0,000 mm 0,0 UV-I 0 W/m -0,5 C 2,1 C 0,0 km/h (0 Bft)
10.03.2014 00:15 2,0 C 83 % 1028,8 hPa 0,0 l/m 0,0 km/h (0 Bft) O 96 0 min 0,000 mm 0,0 UV-I 0 W/m -0,6 C 2,0 C 0,0 km/h (0 Bft)
10.03.2014 00:20 1,7 C 83 % 1028,7 hPa 0,0 l/m 0,0 km/h (0 Bft) O 96 0 min 0,000 mm 0,0 UV-I 0 W/m -0,9 C 1,7 C 0,0 km/h (0 Bft)
10.03.2014 00:25 1,6 C 84 % 1028,6 hPa 0,0 l/m 0,0 km/h (0 Bft) O 96 0 min 0,000 mm 0,0 UV-I 0 W/m -0,8 C 1,6 C 0,0 km/h (0 Bft)
10.03.2014 00:30 1,6 C 84 % 1028,6 hPa 0,0 l/m 0,0 km/h (0 Bft) O 96 0 min 0,000 mm 0,0 UV-I 0 W/m -0,8 C 1,6 C 0,0 km/h (0 Bft)
10.03.2014 00:35 1,6 C 85 % 1028,6 hPa 0,0 l/m 0,0 km/h (0 Bft) O 96 0 min 0,000 mm 0,0 UV-I 0 W/m -0,6 C 1,6 C 0,0 km/h (0 Bft)
10.03.2014 00:40 1,6 C 85 % 1028,5 hPa 0,0 l/m 0,0 km/h (0 Bft) O 96 0 min 0,000 mm 0,0 UV-I 0 W/m -0,6 C 1,6 C 0,0 km/h (0 Bft)
10.03.2014 00:45 1,5 C 85 % 1028,4 hPa 0,0 l/m 0,0 km/h (0 Bft) O 96 0 min 0,000 mm 0,0 UV-I 0 W/m -0,7 C 1,5 C 0,0 km/h (0 Bft)
10.03.2014 00:50 1,4 C 85 % 1028,5 hPa 0,0 l/m 0,0 km/h (0 Bft) O 96 0 min 0,000 mm 0,0 UV-I 0 W/m -0,8 C 1,4 C 0,0 km/h (0 Bft)
10.03.2014 00:55 1,3 C 85 % 1028,5 hPa 0,0 l/m 0,0 km/h (0 Bft) O 96 0 min 0,000 mm 0,0 UV-I 0 W/m -0,9 C 1,3 C 0,0 km/h (0 Bft)
10.03.2014 01:00 1,2 C 86 % 1028,5 hPa 0,0 l/m 0,0 km/h (0 Bft) O 96 0 min 0,000 mm 0,0 UV-I 0 W/m -0,9 C 1,2 C 0,0 km/h (0 Bft)
10.03.2014 01:05 1,1 C 86 % 1028,5 hPa 0,0 l/m 0,0 km/h (0 Bft) O 96 0 min 0,000 mm 0,0 UV-I 0 W/m -1,0 C 1,1 C 0,0 km/h (0 Bft)
10.03.2014 01:10 1,0 C 86 % 1028,5 hPa 0,0 l/m 0,0 km/h (0 Bft) O 96 0 min 0,000 mm 0,0 UV-I 0 W/m -1,1 C 1,0 C 0,0 km/h (0 Bft)
10.03.2014 01:15 0,9 C 86 % 1028,5 hPa 0,0 l/m 0,0 km/h (0 Bft) O 96 0 min 0,000 mm 0,0 UV-I 0 W/m -1,2 C 0,9 C 0,0 km/h (0 Bft)
10.03.2014 01:20 0,8 C 86 % 1028,5 hPa 0,0 l/m 0,0 km/h (0 Bft) O 96 0 min 0,000 mm 0,0 UV-I 0 W/m -1,3 C 0,8 C 0,0 km/h (0 Bft)
10.03.2014 01:25 0,8 C 86 % 1028,4 hPa 0,0 l/m 0,0 km/h (0 Bft) O 96 0 min 0,000 mm 0,0 UV-I 0 W/m -1,3 C 0,8 C 0,0 km/h (0 Bft)
10.03.2014 01:30 0,7 C 87 % 1028,5 hPa 0,0 l/m 0,0 km/h (0 Bft) O 96 0 min 0,000 mm 0,0 UV-I 0 W/m -1,2 C 0,7 C 0,0 km/h (0 Bft)
10.03.2014 01:35 0,6 C 87 % 1028,4 hPa 0,0 l/m 0,0 km/h (0 Bft) O 96 0 min 0,000 mm 0,0 UV-I 0 W/m -1,3 C 0,6 C 0,0 km/h (0 Bft)
10.03.2014 01:40 0,6 C 87 % 1028,5 hPa 0,0 l/m 0,0 km/h (0 Bft) O 96 0 min 0,000 mm 0,0 UV-I 0 W/m -1,3 C 0,6 C 0,0 km/h (0 Bft)
10.03.2014 01:45 0,6 C 87 % 1028,4 hPa 0,0 l/m 0,0 km/h (0 Bft) O 96 0 min 0,000 mm 0,0 UV-I 0 W/m -1,3 C 0,6 C 0,0 km/h (0 Bft)
10.03.2014 01:50 0,5 C 87 % 1028,4 hPa 0,0 l/m 0,0 km/h (0 Bft) O 96 0 min 0,000 mm 0,0 UV-I 0 W/m -1,4 C 0,5 C 0,0 km/h (0 Bft)
10.03.2014 01:55 0,4 C 87 % 1028,4 hPa 0,0 l/m 0,0 km/h (0 Bft) O 96 0 min 0,000 mm 0,0 UV-I 0 W/m -1,5 C 0,4 C 0,0 km/h (0 Bft)
10.03.2014 02:00 0,3 C 87 % 1028,3 hPa 0,0 l/m 0,0 km/h (0 Bft) O 96 0 min 0,000 mm 0,0 UV-I 0 W/m -1,6 C 0,3 C 0,0 km/h (0 Bft)
10.03.2014 02:05 0,3 C 88 % 1028,3 hPa 0,0 l/m 0,0 km/h (0 Bft) O 96 0 min 0,000 mm 0,0 UV-I 0 W/m -1,4 C 0,3 C 0,0 km/h (0 Bft)
10.03.2014 02:10 0,3 C 88 % 1028,2 hPa 0,0 l/m 0,0 km/h (0 Bft) O 96 0 min 0,000 mm 0,0 UV-I 0 W/m -1,4 C 0,3 C 0,0 km/h (0 Bft)
10.03.2014 02:15 0,2 C 88 % 1028,2 hPa 0,0 l/m 0,5 km/h (0 Bft) O-SO 111 0 min 0,000 mm 0,0 UV-I 0 W/m -1,5 C 0,2 C 4,8 km/h (1 Bft)
10.03.2014 02:20 -0,1 C 88 % 1028,1 hPa 0,0 l/m 0,3 km/h (0 Bft) O-SO 111 0 min 0,000 mm 0,0 UV-I 0 W/m -1,8 C -0,1 C 3,2 km/h (1 Bft)
10.03.2014 02:25 -0,2 C 88 % 1028,0 hPa 0,0 l/m 0,0 km/h (0 Bft) O-SO 111 0 min 0,000 mm 0,0 UV-I 0 W/m -1,9 C -0,2 C 0,0 km/h (0 Bft)
10.03.2014 02:30 -0,2 C 88 % 1027,9 hPa 0,0 l/m 0,1 km/h (0 Bft) O-SO 111 0 min 0,000 mm 0,0 UV-I 0 W/m -1,9 C -0,2 C 1,6 km/h (1 Bft)
10.03.2014 02:35 -0,1 C 89 % 1027,9 hPa 0,0 l/m 0,0 km/h (0 Bft) O-SO 111 0 min 0,000 mm 0,0 UV-I 0 W/m -1,7 C -0,1 C 0,0 km/h (0 Bft)
10.03.2014 02:40 0,0 C 90 % 1027,7 hPa 0,0 l/m 0,0 km/h (0 Bft) O-SO 111 0 min 0,000 mm 0,0 UV-I 0 W/m -1,4 C 0,0 C 0,0 km/h (0 Bft)
10.03.2014 02:45 0,0 C 90 % 1027,7 hPa 0,0 l/m 0,0 km/h (0 Bft) O-SO 111 0 min 0,000 mm 0,0 UV-I 0 W/m -1,4 C 0,0 C 0,0 km/h (0 Bft)
10.03.2014 02:50 0,1 C 90 % 1027,5 hPa 0,0 l/m 0,0 km/h (0 Bft) O-SO 111 0 min 0,000 mm 0,0 UV-I 0 W/m -1,3 C 0,1 C 0,0 km/h (0 Bft)
10.03.2014 02:55 0,2 C 91 % 1027,5 hPa 0,0 l/m 0,7 km/h (0 Bft) SW 232 0 min 0,000 mm 0,0 UV-I 0 W/m -1,1 C 0,2 C 4,8 km/h (1 Bft)
10.03.2014 03:00 -0,1 C 89 % 1027,5 hPa 0,0 l/m 0,5 km/h (0 Bft) SW 231 0 min 0,000 mm 0,0 UV-I 0 W/m -1,7 C -0,1 C 3,2 km/h (1 Bft)
10.03.2014 03:05 -0,3 C 89 % 1027,5 hPa 0,0 l/m 0,0 km/h (0 Bft) SW 231 0 min 0,000 mm 0,0 UV-I 0 W/m -1,9 C -0,3 C 0,0 km/h (0 Bft)
10.03.2014 03:10 -0,6 C 88 % 1027,6 hPa 0,0 l/m 1,2 km/h (1 Bft) W-SW 257 0 min 0,000 mm 0,0 UV-I 0 W/m -2,3 C -0,6 C 4,8 km/h (1 Bft)
10.03.2014 03:15 -0,7 C 90 % 1027,6 hPa 0,0 l/m 0,5 km/h (0 Bft) W-SW 258 0 min 0,000 mm 0,0 UV-I 0 W/m -2,1 C -0,7 C 3,2 km/h (1 Bft)
10.03.2014 03:20 -0,7 C 90 % 1027,6 hPa 0,0 l/m 0,5 km/h (0 Bft) W 277 0 min 0,000 mm 0,0 UV-I 0 W/m -2,1 C -0,7 C 3,2 km/h (1 Bft)
10.03.2014 03:25 -0,6 C 90 % 1027,6 hPa 0,0 l/m 0,2 km/h (0 Bft) W 277 0 min 0,000 mm 0,0 UV-I 0 W/m -2,0 C -0,6 C 3,2 km/h (1 Bft)
10.03.2014 03:30 -0,6 C 90 % 1027,5 hPa 0,0 l/m 0,0 km/h (0 Bft) W 277 0 min 0,000 mm 0,0 UV-I 0 W/m -2,0 C -0,6 C 0,0 km/h (0 Bft)
10.03.2014 03:35 -0,7 C 90 % 1027,5 hPa 0,0 l/m 0,0 km/h (0 Bft) W 277 0 min 0,000 mm 0,0 UV-I 0 W/m -2,1 C -0,7 C 0,0 km/h (0 Bft)
10.03.2014 03:40 -0,7 C 90 % 1027,4 hPa 0,0 l/m 0,0 km/h (0 Bft) W 277 0 min 0,000 mm 0,0 UV-I 0 W/m -2,1 C -0,7 C 0,0 km/h (0 Bft)
10.03.2014 03:45 -0,7 C 91 % 1027,4 hPa 0,0 l/m 0,0 km/h (0 Bft) W 277 0 min 0,000 mm 0,0 UV-I 0 W/m -2,0 C -0,7 C 0,0 km/h (0 Bft)
10.03.2014 03:50 -0,7 C 90 % 1027,4 hPa 0,0 l/m 0,0 km/h (0 Bft) W 277 0 min 0,000 mm 0,0 UV-I 0 W/m -2,1 C -0,7 C 0,0 km/h (0 Bft)
10.03.2014 03:55 -0,7 C 90 % 1027,4 hPa 0,0 l/m 0,0 km/h (0 Bft) W 277 0 min 0,000 mm 0,0 UV-I 0 W/m -2,1 C -0,7 C 0,0 km/h (0 Bft)
10.03.2014 04:00 -0,8 C 90 % 1027,4 hPa 0,0 l/m 0,0 km/h (0 Bft) W 277 0 min 0,000 mm 0,0 UV-I 0 W/m -2,2 C -0,8 C 0,0 km/h (0 Bft)
10.03.2014 04:05 -0,8 C 90 % 1027,3 hPa 0,0 l/m 0,0 km/h (0 Bft) W 277 0 min 0,000 mm 0,0 UV-I 0 W/m -2,2 C -0,8 C 0,0 km/h (0 Bft)
10.03.2014 04:10 -0,8 C 90 % 1027,3 hPa 0,0 l/m 0,0 km/h (0 Bft) W 277 0 min 0,000 mm 0,0 UV-I 0 W/m -2,2 C -0,8 C 0,0 km/h (0 Bft)
10.03.2014 04:15 -0,9 C 91 % 1027,3 hPa 0,0 l/m 0,0 km/h (0 Bft) W 277 0 min 0,000 mm 0,0 UV-I 0 W/m -2,2 C -0,9 C 0,0 km/h (0 Bft)
10.03.2014 04:20 -0,9 C 91 % 1027,2 hPa 0,0 l/m 0,0 km/h (0 Bft) W 277 0 min 0,000 mm 0,0 UV-I 0 W/m -2,2 C -0,9 C 0,0 km/h (0 Bft)
10.03.2014 04:25 -0,9 C 90 % 1027,4 hPa 0,0 l/m 0,0 km/h (0 Bft) W 277 0 min 0,000 mm 0,0 UV-I 0 W/m -2,3 C -0,9 C 0,0 km/h (0 Bft)
10.03.2014 04:30 -0,9 C 91 % 1027,4 hPa 0,0 l/m 0,0 km/h (0 Bft) W 277 0 min 0,000 mm 0,0 UV-I 0 W/m -2,2 C -0,9 C 0,0 km/h (0 Bft)
10.03.2014 04:35 -1,0 C 91 % 1027,5 hPa 0,0 l/m 0,0 km/h (0 Bft) W 277 0 min 0,000 mm 0,0 UV-I 0 W/m -2,3 C -1,0 C 0,0 km/h (0 Bft)
10.03.2014 04:40 -1,0 C 91 % 1027,4 hPa 0,0 l/m 0,0 km/h (0 Bft) W 277 0 min 0,000 mm 0,0 UV-I 0 W/m -2,3 C -1,0 C 0,0 km/h (0 Bft)
10.03.2014 04:45 -1,1 C 90 % 1027,3 hPa 0,0 l/m 0,0 km/h (0 Bft) W 277 0 min 0,000 mm 0,0 UV-I 0 W/m -2,5 C -1,1 C 0,0 km/h (0 Bft)
10.03.2014 04:50 -1,2 C 90 % 1027,2 hPa 0,0 l/m 0,0 km/h (0 Bft) W 277 0 min 0,000 mm 0,0 UV-I 0 W/m -2,6 C -1,2 C 0,0 km/h (0 Bft)
10.03.2014 04:55 -1,2 C 91 % 1027,1 hPa 0,0 l/m 0,0 km/h (0 Bft) W 277 0 min 0,000 mm 0,0 UV-I 0 W/m -2,5 C -1,2 C 0,0 km/h (0 Bft)
10.03.2014 05:00 -1,1 C 91 % 1027,1 hPa 0,0 l/m 0,0 km/h (0 Bft) W 277 0 min 0,000 mm 0,0 UV-I 0 W/m -2,4 C -1,1 C 0,0 km/h (0 Bft)
10.03.2014 05:05 -1,1 C 91 % 1027,0 hPa 0,0 l/m 0,0 km/h (0 Bft) W 277 0 min 0,000 mm 0,0 UV-I 0 W/m -2,4 C -1,1 C 0,0 km/h (0 Bft)
10.03.2014 05:10 -1,0 C 92 % 1026,9 hPa 0,0 l/m 0,0 km/h (0 Bft) W 277 0 min 0,000 mm 0,0 UV-I 0 W/m -2,1 C -1,0 C 1,6 km/h (1 Bft)
10.03.2014 05:15 -0,9 C 92 % 1026,9 hPa 0,0 l/m 0,0 km/h (0 Bft) W 277 0 min 0,000 mm 0,0 UV-I 0 W/m -2,0 C -0,9 C 0,0 km/h (0 Bft)
10.03.2014 05:20 -0,9 C 92 % 1026,9 hPa 0,0 l/m 0,0 km/h (0 Bft) W 277 0 min 0,000 mm 0,0 UV-I 0 W/m -2,0 C -0,9 C 0,0 km/h (0 Bft)
10.03.2014 05:25 -0,9 C 92 % 1026,9 hPa 0,0 l/m 0,0 km/h (0 Bft) W 277 0 min 0,000 mm 0,0 UV-I 0 W/m -2,0 C -0,9 C 0,0 km/h (0 Bft)
10.03.2014 05:30 -0,9 C 92 % 1026,9 hPa 0,0 l/m 0,0 km/h (0 Bft) W 277 0 min 0,000 mm 0,0 UV-I 0 W/m -2,0 C -0,9 C 0,0 km/h (0 Bft)
10.03.2014 05:35 -0,9 C 92 % 1026,8 hPa 0,0 l/m 0,0 km/h (0 Bft) W 277 0 min 0,000 mm 0,0 UV-I 0 W/m -2,0 C -0,9 C 0,0 km/h (0 Bft)
10.03.2014 05:40 -0,8 C 92 % 1026,8 hPa 0,0 l/m 0,0 km/h (0 Bft) W 277 0 min 0,000 mm 0,0 UV-I 0 W/m -1,9 C -0,8 C 0,0 km/h (0 Bft)
10.03.2014 05:45 -0,7 C 93 % 1026,8 hPa 0,0 l/m 0,0 km/h (0 Bft) W 277 0 min 0,000 mm 0,0 UV-I 0 W/m -1,7 C -0,7 C 0,0 km/h (0 Bft)
10.03.2014 05:50 -0,8 C 92 % 1026,8 hPa 0,0 l/m 0,0 km/h (0 Bft) W 277 0 min 0,000 mm 0,0 UV-I 0 W/m -1,9 C -0,8 C 0,0 km/h (0 Bft)
10.03.2014 05:55 -0,9 C 92 % 1026,8 hPa 0,0 l/m 0,0 km/h (0 Bft) W 277 0 min 0,000 mm 0,0 UV-I 0 W/m -2,0 C -0,9 C 0,0 km/h (0 Bft)
10.03.2014 06:00 -1,1 C 91 % 1026,8 hPa 0,0 l/m 0,0 km/h (0 Bft) W 277 0 min 0,000 mm 0,0 UV-I 0 W/m -2,4 C -1,1 C 0,0 km/h (0 Bft)
10.03.2014 06:05 -1,2 C 91 % 1026,8 hPa 0,0 l/m 0,0 km/h (0 Bft) W 277 0 min 0,000 mm 0,0 UV-I 0 W/m -2,5 C -1,2 C 0,0 km/h (0 Bft)
10.03.2014 06:10 -1,2 C 91 % 1026,8 hPa 0,0 l/m 0,0 km/h (0 Bft) W 277 0 min 0,000 mm 0,0 UV-I 0 W/m -2,5 C -1,2 C 0,0 km/h (0 Bft)
10.03.2014 06:15 -1,3 C 91 % 1026,8 hPa 0,0 l/m 0,0 km/h (0 Bft) W 277 0 min 0,000 mm 0,0 UV-I 0 W/m -2,6 C -1,3 C 1,6 km/h (1 Bft)
10.03.2014 06:20 -1,4 C 91 % 1026,8 hPa 0,0 l/m 0,0 km/h (0 Bft) W 277 0 min 0,000 mm 0,0 UV-I 0 W/m -2,7 C -1,4 C 0,0 km/h (0 Bft)
10.03.2014 06:25 -1,5 C 91 % 1026,7 hPa 0,0 l/m 0,0 km/h (0 Bft) W 277 0 min 0,000 mm 0,0 UV-I 0 W/m -2,8 C -1,5 C 0,0 km/h (0 Bft)
10.03.2014 06:30 -1,6 C 92 % 1026,7 hPa 0,0 l/m 0,0 km/h (0 Bft) W 277 0 min 0,000 mm 0,0 UV-I 0 W/m -2,7 C -1,6 C 0,0 km/h (0 Bft)
10.03.2014 06:35 -1,6 C 91 % 1026,6 hPa 0,0 l/m 0,0 km/h (0 Bft) W 277 0 min 0,000 mm 0,0 UV-I 0 W/m -2,9 C -1,6 C 0,0 km/h (0 Bft)
10.03.2014 06:40 -1,6 C 91 % 1026,6 hPa 0,0 l/m 0,0 km/h (0 Bft) W 277 0 min 0,000 mm 0,0 UV-I 0 W/m -2,9 C -1,6 C 0,0 km/h (0 Bft)
10.03.2014 06:45 -1,7 C 92 % 1026,6 hPa 0,0 l/m 0,0 km/h (0 Bft) W 277 0 min 0,000 mm 0,0 UV-I 0 W/m -2,8 C -1,7 C 0,0 km/h (0 Bft)
10.03.2014 06:50 -1,7 C 92 % 1026,7 hPa 0,0 l/m 0,0 km/h (0 Bft) W 277 0 min 0,000 mm 0,0 UV-I 0 W/m -2,8 C -1,7 C 0,0 km/h (0 Bft)
10.03.2014 06:55 -1,6 C 92 % 1026,9 hPa 0,0 l/m 0,0 km/h (0 Bft) W 277 0 min 0,000 mm 0,0 UV-I 5 W/m -2,7 C -1,6 C 0,0 km/h (0 Bft)
10.03.2014 07:00 -1,6 C 92 % 1026,9 hPa 0,0 l/m 0,0 km/h (0 Bft) W 277 0 min 0,000 mm 0,0 UV-I 7 W/m -2,7 C -1,6 C 0,0 km/h (0 Bft)
10.03.2014 07:05 -1,6 C 92 % 1026,8 hPa 0,0 l/m 0,0 km/h (0 Bft) W 277 0 min 0,000 mm 0,0 UV-I 11 W/m -2,7 C -1,6 C 0,0 km/h (0 Bft)
10.03.2014 07:10 -1,7 C 92 % 1026,7 hPa 0,0 l/m 0,0 km/h (0 Bft) W 277 0 min 0,000 mm 0,0 UV-I 14 W/m -2,8 C -1,7 C 0,0 km/h (0 Bft)
10.03.2014 07:15 -1,7 C 92 % 1026,5 hPa 0,0 l/m 0,0 km/h (0 Bft) W 277 0 min 0,000 mm 0,0 UV-I 18 W/m -2,8 C -1,7 C 0,0 km/h (0 Bft)
10.03.2014 07:20 -1,7 C 92 % 1026,5 hPa 0,0 l/m 0,0 km/h (0 Bft) W 277 0 min 0,000 mm 0,0 UV-I 23 W/m -2,8 C -1,7 C 1,6 km/h (1 Bft)
10.03.2014 07:25 -1,6 C 92 % 1026,6 hPa 0,0 l/m 0,0 km/h (0 Bft) W 277 0 min 0,000 mm 0,0 UV-I 30 W/m -2,7 C -1,6 C 0,0 km/h (0 Bft)
10.03.2014 07:30 -1,4 C 92 % 1026,8 hPa 0,0 l/m 0,0 km/h (0 Bft) W 277 0 min 0,000 mm 0,0 UV-I 39 W/m -2,5 C -1,4 C 0,0 km/h (0 Bft)
10.03.2014 07:35 -1,3 C 92 % 1026,9 hPa 0,0 l/m 0,1 km/h (0 Bft) W 277 0 min 0,000 mm 0,0 UV-I 47 W/m -2,4 C -1,3 C 1,6 km/h (1 Bft)
10.03.2014 07:40 -1,1 C 92 % 1026,8 hPa 0,0 l/m 0,0 km/h (0 Bft) W 277 0 min 0,000 mm 0,0 UV-I 56 W/m -2,2 C -1,1 C 0,0 km/h (0 Bft)
10.03.2014 07:45 -0,8 C 92 % 1026,8 hPa 0,0 l/m 0,0 km/h (0 Bft) W 277 0 min 0,000 mm 0,0 UV-I 63 W/m -1,9 C -0,8 C 0,0 km/h (0 Bft)
10.03.2014 07:50 -0,7 C 92 % 1026,9 hPa 0,0 l/m 0,0 km/h (0 Bft) W 277 0 min 0,000 mm 0,0 UV-I 74 W/m -1,8 C -0,7 C 0,0 km/h (0 Bft)
10.03.2014 07:55 -0,7 C 91 % 1027,0 hPa 0,0 l/m 0,0 km/h (0 Bft) W 277 0 min 0,000 mm 0,0 UV-I 84 W/m -2,0 C -0,7 C 0,0 km/h (0 Bft)
10.03.2014 08:00 -0,6 C 91 % 1026,8 hPa 0,0 l/m 0,0 km/h (0 Bft) W 277 5 min 0,025 mm 0,0 UV-I 97 W/m -1,9 C -0,6 C 0,0 km/h (0 Bft)
10.03.2014 08:05 -0,2 C 92 % 1026,8 hPa 0,0 l/m 0,0 km/h (0 Bft) W 277 5 min 0,000 mm 0,0 UV-I 109 W/m -1,3 C -0,2 C 0,0 km/h (0 Bft)
10.03.2014 08:10 0,5 C 92 % 1026,9 hPa 0,0 l/m 0,0 km/h (0 Bft) W 277 5 min 0,000 mm 0,0 UV-I 121 W/m -0,6 C 0,5 C 0,0 km/h (0 Bft)
10.03.2014 08:15 0,7 C 90 % 1027,0 hPa 0,2 l/m 0,0 km/h (0 Bft) W 277 5 min 0,000 mm 0,0 UV-I 130 W/m -0,7 C 0,7 C 1,6 km/h (1 Bft)
10.03.2014 08:20 0,5 C 88 % 1027,1 hPa 0,0 l/m 0,0 km/h (0 Bft) W 277 5 min 0,000 mm 0,0 UV-I 139 W/m -1,3 C 0,5 C 1,6 km/h (1 Bft)
10.03.2014 08:25 0,8 C 88 % 1027,0 hPa 0,0 l/m 0,0 km/h (0 Bft) W 277 5 min 0,000 mm 0,0 UV-I 148 W/m -1,0 C 0,8 C 0,0 km/h (0 Bft)
10.03.2014 08:30 1,1 C 89 % 1027,1 hPa 0,0 l/m 0,1 km/h (0 Bft) W 277 5 min 0,000 mm 0,5 UV-I 158 W/m -0,5 C 1,1 C 1,6 km/h (1 Bft)
10.03.2014 08:35 1,6 C 89 % 1027,0 hPa 0,0 l/m 0,0 km/h (0 Bft) W 277 5 min 0,000 mm 0,5 UV-I 169 W/m -0,0 C 1,6 C 1,6 km/h (1 Bft)
10.03.2014 08:40 2,2 C 86 % 1027,1 hPa 0,0 l/m 0,0 km/h (0 Bft) W 277 5 min 0,000 mm 0,5 UV-I 179 W/m 0,1 C 2,2 C 0,0 km/h (0 Bft)
10.03.2014 08:45 2,6 C 85 % 1027,1 hPa 0,0 l/m 0,0 km/h (0 Bft) W 277 5 min 0,000 mm 0,5 UV-I 190 W/m 0,3 C 2,6 C 0,0 km/h (0 Bft)
10.03.2014 08:50 2,8 C 84 % 1027,1 hPa 0,0 l/m 0,0 km/h (0 Bft) W 277 5 min 0,000 mm 0,6 UV-I 199 W/m 0,4 C 2,8 C 0,0 km/h (0 Bft)
10.03.2014 08:55 3,3 C 83 % 1027,1 hPa 0,0 l/m 0,0 km/h (0 Bft) W 277 5 min 0,000 mm 0,6 UV-I 207 W/m 0,7 C 3,3 C 0,0 km/h (0 Bft)
10.03.2014 09:00 3,7 C 82 % 1027,1 hPa 0,0 l/m 0,0 km/h (0 Bft) W 277 5 min 0,051 mm 0,7 UV-I 220 W/m 0,9 C 3,7 C 1,6 km/h (1 Bft)
10.03.2014 09:05 3,8 C 81 % 1027,0 hPa 0,0 l/m 0,0 km/h (0 Bft) W 277 5 min 0,000 mm 0,7 UV-I 230 W/m 0,8 C 3,8 C 0,0 km/h (0 Bft)
10.03.2014 09:10 4,3 C 80 % 1026,9 hPa 0,0 l/m 0,0 km/h (0 Bft) W 277 5 min 0,000 mm 0,7 UV-I 243 W/m 1,2 C 4,3 C 0,0 km/h (0 Bft)
10.03.2014 09:15 5,0 C 79 % 1026,9 hPa 0,0 l/m 0,0 km/h (0 Bft) W 277 5 min 0,000 mm 0,8 UV-I 255 W/m 1,7 C 5,0 C 0,0 km/h (0 Bft)
10.03.2014 09:20 5,2 C 78 % 1026,8 hPa 0,0 l/m 0,0 km/h (0 Bft) W 277 5 min 0,000 mm 0,8 UV-I 265 W/m 1,7 C 5,2 C 1,6 km/h (1 Bft)
10.03.2014 09:25 5,6 C 79 % 1026,7 hPa 0,0 l/m 0,0 km/h (0 Bft) W 277 5 min 0,000 mm 0,9 UV-I 279 W/m 2,3 C 5,6 C 1,6 km/h (1 Bft)
10.03.2014 09:30 6,0 C 77 % 1026,6 hPa 0,0 l/m 0,0 km/h (0 Bft) W 277 5 min 0,000 mm 0,9 UV-I 292 W/m 2,3 C 6,0 C 1,6 km/h (1 Bft)
10.03.2014 09:35 6,4 C 76 % 1026,5 hPa 0,0 l/m 0,0 km/h (0 Bft) W 277 5 min 0,000 mm 1,0 UV-I 308 W/m 2,5 C 6,4 C 1,6 km/h (1 Bft)
10.03.2014 09:40 6,8 C 75 % 1026,5 hPa 0,0 l/m 0,0 km/h (0 Bft) W 277 5 min 0,000 mm 1,0 UV-I 325 W/m 2,7 C 6,8 C 0,0 km/h (0 Bft)
10.03.2014 09:45 7,2 C 71 % 1026,4 hPa 0,0 l/m 0,1 km/h (0 Bft) W 277 5 min 0,000 mm 1,1 UV-I 341 W/m 2,3 C 7,2 C 1,6 km/h (1 Bft)
10.03.2014 09:50 7,5 C 72 % 1026,3 hPa 0,0 l/m 0,9 km/h (0 Bft) W 277 5 min 0,000 mm 1,1 UV-I 357 W/m 2,8 C 7,5 C 3,2 km/h (1 Bft)
10.03.2014 09:55 7,8 C 71 % 1026,3 hPa 0,0 l/m 0,0 km/h (0 Bft) W 277 5 min 0,000 mm 1,2 UV-I 371 W/m 2,9 C 7,8 C 1,6 km/h (1 Bft)
10.03.2014 10:00 7,9 C 71 % 1026,2 hPa 0,0 l/m 0,1 km/h (0 Bft) W 277 5 min 0,127 mm 1,2 UV-I 383 W/m 3,0 C 7,9 C 1,6 km/h (1 Bft)
10.03.2014 10:05 8,3 C 70 % 1026,2 hPa 0,0 l/m 0,1 km/h (0 Bft) W 277 5 min 0,000 mm 1,3 UV-I 390 W/m 3,2 C 8,3 C 1,6 km/h (1 Bft)
10.03.2014 10:10 9,0 C 70 % 1026,1 hPa 0,0 l/m 0,0 km/h (0 Bft) W 277 5 min 0,000 mm 1,3 UV-I 401 W/m 3,8 C 9,0 C 1,6 km/h (1 Bft)
10.03.2014 10:15 9,7 C 67 % 1026,1 hPa 0,0 l/m 0,0 km/h (0 Bft) W 277 5 min 0,000 mm 1,4 UV-I 413 W/m 3,9 C 9,7 C 0,0 km/h (0 Bft)
10.03.2014 10:20 10,1 C 65 % 1026,0 hPa 0,0 l/m 0,1 km/h (0 Bft) W 277 5 min 0,000 mm 1,4 UV-I 424 W/m 3,8 C 10,1 C 1,6 km/h (1 Bft)
10.03.2014 10:25 10,8 C 64 % 1025,9 hPa 0,0 l/m 0,2 km/h (0 Bft) W 277 5 min 0,000 mm 1,5 UV-I 434 W/m 4,3 C 10,8 C 1,6 km/h (1 Bft)
10.03.2014 10:30 10,8 C 63 % 1025,9 hPa 0,0 l/m 0,2 km/h (0 Bft) W 277 5 min 0,000 mm 1,5 UV-I 443 W/m 4,0 C 10,8 C 1,6 km/h (1 Bft)
10.03.2014 10:35 11,3 C 62 % 1025,8 hPa 0,0 l/m 0,0 km/h (0 Bft) W 277 5 min 0,000 mm 1,6 UV-I 450 W/m 4,3 C 11,3 C 1,6 km/h (1 Bft)
10.03.2014 10:40 12,1 C 60 % 1025,8 hPa 0,0 l/m 0,0 km/h (0 Bft) W 277 5 min 0,000 mm 1,6 UV-I 459 W/m 4,6 C 12,1 C 1,6 km/h (1 Bft)
10.03.2014 10:45 12,8 C 53 % 1025,8 hPa 0,0 l/m 0,0 km/h (0 Bft) W 277 5 min 0,000 mm 1,7 UV-I 468 W/m 3,5 C 12,8 C 1,6 km/h (1 Bft)
10.03.2014 10:50 13,5 C 54 % 1025,7 hPa 0,0 l/m 0,1 km/h (0 Bft) W 277 5 min 0,000 mm 1,7 UV-I 476 W/m 4,4 C 13,5 C 1,6 km/h (1 Bft)
10.03.2014 10:55 13,7 C 52 % 1025,6 hPa 0,0 l/m 0,8 km/h (0 Bft) S 185 5 min 0,000 mm 1,8 UV-I 483 W/m 4,0 C 13,7 C 4,8 km/h (1 Bft)
10.03.2014 11:00 14,2 C 53 % 1025,6 hPa 0,0 l/m 0,0 km/h (0 Bft) S 185 5 min 0,203 mm 1,8 UV-I 490 W/m 4,8 C 14,2 C 1,6 km/h (1 Bft)
10.03.2014 11:05 15,0 C 46 % 1025,5 hPa 0,0 l/m 0,0 km/h (0 Bft) S 185 5 min 0,000 mm 1,9 UV-I 499 W/m 3,5 C 15,0 C 1,6 km/h (1 Bft)
10.03.2014 11:10 14,8 C 49 % 1025,4 hPa 0,0 l/m 0,7 km/h (0 Bft) S 186 5 min 0,000 mm 1,9 UV-I 506 W/m 4,2 C 14,8 C 4,8 km/h (1 Bft)
10.03.2014 11:15 14,9 C 45 % 1025,4 hPa 0,0 l/m 1,0 km/h (0 Bft) SO 126 5 min 0,000 mm 2,0 UV-I 515 W/m 3,1 C 14,9 C 6,4 km/h (2 Bft)
10.03.2014 11:20 15,3 C 47 % 1025,4 hPa 0,0 l/m 0,4 km/h (0 Bft) S-SO 161 5 min 0,000 mm 2,0 UV-I 522 W/m 4,1 C 15,3 C 3,2 km/h (1 Bft)
10.03.2014 11:25 15,7 C 46 % 1025,4 hPa 0,0 l/m 0,6 km/h (0 Bft) S-SO 163 5 min 0,000 mm 2,1 UV-I 531 W/m 4,1 C 15,7 C 4,8 km/h (1 Bft)
10.03.2014 11:30 16,1 C 42 % 1025,3 hPa 0,0 l/m 1,0 km/h (0 Bft) S 185 5 min 0,000 mm 2,1 UV-I 536 W/m 3,2 C 16,1 C 4,8 km/h (1 Bft)
10.03.2014 11:35 16,2 C 42 % 1025,2 hPa 0,0 l/m 1,2 km/h (1 Bft) SO 133 5 min 0,000 mm 2,1 UV-I 541 W/m 3,3 C 16,2 C 6,4 km/h (2 Bft)
10.03.2014 11:40 15,6 C 41 % 1025,2 hPa 0,0 l/m 0,9 km/h (0 Bft) S-SO 156 5 min 0,000 mm 2,2 UV-I 548 W/m 2,4 C 15,6 C 4,8 km/h (1 Bft)
10.03.2014 11:45 15,7 C 43 % 1025,2 hPa 0,0 l/m 0,6 km/h (0 Bft) SW 236 5 min 0,000 mm 2,2 UV-I 550 W/m 3,2 C 15,7 C 4,8 km/h (1 Bft)
10.03.2014 11:50 15,6 C 38 % 1025,2 hPa 0,0 l/m 3,0 km/h (1 Bft) S-SO 154 5 min 0,000 mm 2,2 UV-I 552 W/m 1,3 C 15,6 C 8,0 km/h (2 Bft)
10.03.2014 11:55 16,2 C 41 % 1025,2 hPa 0,0 l/m 3,2 km/h (1 Bft) O 88 5 min 0,000 mm 2,2 UV-I 555 W/m 2,9 C 16,2 C 6,4 km/h (2 Bft)
10.03.2014 12:00 16,8 C 38 % 1025,2 hPa 0,0 l/m 4,3 km/h (1 Bft) O 101 5 min 0,000 mm 2,3 UV-I 559 W/m 2,4 C 16,8 C 9,7 km/h (2 Bft)
10.03.2014 12:05 15,5 C 39 % 1025,2 hPa 0,0 l/m 5,0 km/h (1 Bft) O-NO 67 5 min 0,305 mm 2,3 UV-I 563 W/m 1,6 C 15,5 C 9,7 km/h (2 Bft)
10.03.2014 12:10 16,0 C 37 % 1025,2 hPa 0,0 l/m 3,7 km/h (1 Bft) O-NO 76 5 min 0,000 mm 2,3 UV-I 563 W/m 1,3 C 16,0 C 8,0 km/h (2 Bft)
10.03.2014 12:15 15,8 C 37 % 1025,1 hPa 0,0 l/m 3,5 km/h (1 Bft) O-SO 123 5 min 0,000 mm 2,3 UV-I 570 W/m 1,1 C 15,8 C 8,0 km/h (2 Bft)
10.03.2014 12:20 15,7 C 38 % 1025,0 hPa 0,0 l/m 3,1 km/h (1 Bft) O-SO 110 5 min 0,000 mm 2,4 UV-I 577 W/m 1,4 C 15,7 C 9,7 km/h (2 Bft)
10.03.2014 12:25 16,4 C 36 % 1025,0 hPa 0,0 l/m 3,9 km/h (1 Bft) O-SO 105 5 min 0,000 mm 2,4 UV-I 573 W/m 1,3 C 16,4 C 9,7 km/h (2 Bft)
10.03.2014 12:30 17,3 C 35 % 1024,9 hPa 0,0 l/m 2,7 km/h (1 Bft) S-SO 148 5 min 0,000 mm 2,4 UV-I 578 W/m 1,7 C 17,3 C 6,4 km/h (2 Bft)
10.03.2014 12:35 16,3 C 35 % 1024,8 hPa 0,0 l/m 4,4 km/h (1 Bft) O 80 5 min 0,000 mm 2,4 UV-I 578 W/m 0,8 C 16,3 C 11,3 km/h (2 Bft)
10.03.2014 12:40 16,6 C 34 % 1024,8 hPa 0,0 l/m 2,3 km/h (1 Bft) O-SO 122 5 min 0,000 mm 2,4 UV-I 580 W/m 0,7 C 16,6 C 8,0 km/h (2 Bft)
10.03.2014 12:45 16,9 C 34 % 1024,7 hPa 0,0 l/m 1,4 km/h (1 Bft) O-SO 114 5 min 0,000 mm 2,4 UV-I 578 W/m 0,9 C 16,9 C 6,4 km/h (2 Bft)
10.03.2014 12:50 17,3 C 35 % 1024,6 hPa 0,0 l/m 2,7 km/h (1 Bft) O 85 5 min 0,000 mm 2,3 UV-I 575 W/m 1,7 C 17,3 C 12,9 km/h (3 Bft)
10.03.2014 12:55 18,2 C 32 % 1024,6 hPa 0,0 l/m 2,5 km/h (1 Bft) O-NO 62 5 min 0,000 mm 2,3 UV-I 578 W/m 1,2 C 18,2 C 12,9 km/h (3 Bft)
10.03.2014 13:00 18,8 C 32 % 1024,5 hPa 0,0 l/m 0,8 km/h (0 Bft) NO 52 5 min 0,000 mm 2,3 UV-I 578 W/m 1,8 C 18,8 C 8,0 km/h (2 Bft)
10.03.2014 13:05 19,0 C 32 % 1024,4 hPa 0,0 l/m 2,3 km/h (1 Bft) O-NO 67 5 min 0,330 mm 2,3 UV-I 570 W/m 1,9 C 19,0 C 8,0 km/h (2 Bft)
10.03.2014 13:10 18,4 C 32 % 1024,4 hPa 0,0 l/m 4,4 km/h (1 Bft) O-NO 63 5 min 0,000 mm 2,3 UV-I 570 W/m 1,4 C 18,4 C 11,3 km/h (2 Bft)
10.03.2014 13:15 19,1 C 31 % 1024,2 hPa 0,0 l/m 2,9 km/h (1 Bft) O-NO 71 5 min 0,000 mm 2,2 UV-I 566 W/m 1,6 C 19,1 C 8,0 km/h (2 Bft)
10.03.2014 13:20 17,5 C 32 % 1024,2 hPa 0,0 l/m 5,6 km/h (1 Bft) O 90 5 min 0,000 mm 2,2 UV-I 563 W/m 0,6 C 17,5 C 12,9 km/h (3 Bft)
10.03.2014 13:25 18,1 C 32 % 1024,1 hPa 0,0 l/m 4,5 km/h (1 Bft) O-SO 103 5 min 0,000 mm 2,2 UV-I 564 W/m 1,2 C 18,1 C 11,3 km/h (2 Bft)
10.03.2014 13:30 18,6 C 31 % 1024,1 hPa 0,0 l/m 6,6 km/h (2 Bft) O-NO 67 5 min 0,000 mm 2,2 UV-I 557 W/m 1,1 C 18,5 C 14,5 km/h (3 Bft)
10.03.2014 13:35 18,7 C 30 % 1024,0 hPa 0,0 l/m 3,9 km/h (1 Bft) O 96 5 min 0,000 mm 2,1 UV-I 554 W/m 0,8 C 18,7 C 11,3 km/h (2 Bft)
10.03.2014 13:40 17,4 C 33 % 1024,0 hPa 0,0 l/m 4,8 km/h (1 Bft) O-SO 109 5 min 0,000 mm 2,1 UV-I 552 W/m 1,0 C 17,4 C 14,5 km/h (3 Bft)
10.03.2014 13:45 18,3 C 34 % 1024,0 hPa 0,0 l/m 4,0 km/h (1 Bft) S 173 5 min 0,000 mm 2,1 UV-I 550 W/m 2,2 C 18,3 C 12,9 km/h (3 Bft)
10.03.2014 13:50 17,8 C 32 % 1024,0 hPa 0,0 l/m 3,5 km/h (1 Bft) O-NO 68 5 min 0,000 mm 2,0 UV-I 548 W/m 0,9 C 17,8 C 9,7 km/h (2 Bft)
10.03.2014 13:55 18,6 C 34 % 1024,0 hPa 0,0 l/m 4,2 km/h (1 Bft) O-SO 119 5 min 0,000 mm 2,0 UV-I 541 W/m 2,4 C 18,6 C 12,9 km/h (3 Bft)
10.03.2014 14:00 17,7 C 32 % 1023,9 hPa 0,0 l/m 5,0 km/h (1 Bft) O 86 5 min 0,000 mm 1,9 UV-I 533 W/m 0,8 C 17,7 C 14,5 km/h (3 Bft)
10.03.2014 14:05 18,1 C 31 % 1023,9 hPa 0,0 l/m 4,8 km/h (1 Bft) O 94 5 min 0,356 mm 1,9 UV-I 534 W/m 0,7 C 18,1 C 14,5 km/h (3 Bft)
10.03.2014 14:10 18,2 C 31 % 1023,8 hPa 0,0 l/m 5,7 km/h (1 Bft) SO 128 5 min 0,000 mm 1,9 UV-I 529 W/m 0,8 C 18,2 C 11,3 km/h (2 Bft)
10.03.2014 14:15 17,4 C 32 % 1023,7 hPa 0,0 l/m 3,8 km/h (1 Bft) O-NO 57 5 min 0,000 mm 1,8 UV-I 522 W/m 0,5 C 17,4 C 9,7 km/h (2 Bft)
10.03.2014 14:20 17,8 C 32 % 1023,7 hPa 0,0 l/m 7,9 km/h (2 Bft) O-NO 69 5 min 0,000 mm 1,8 UV-I 517 W/m 0,9 C 17,1 C 16,1 km/h (3 Bft)
10.03.2014 14:25 17,8 C 32 % 1023,6 hPa 0,0 l/m 7,6 km/h (2 Bft) O-NO 74 5 min 0,000 mm 1,7 UV-I 508 W/m 0,9 C 17,2 C 16,1 km/h (3 Bft)
10.03.2014 14:30 19,5 C 32 % 1023,6 hPa 0,0 l/m 3,9 km/h (1 Bft) O-NO 72 5 min 0,000 mm 1,7 UV-I 496 W/m 2,4 C 19,5 C 12,9 km/h (3 Bft)
10.03.2014 14:35 19,8 C 30 % 1023,6 hPa 0,0 l/m 4,8 km/h (1 Bft) O-NO 70 5 min 0,000 mm 1,6 UV-I 489 W/m 1,7 C 19,8 C 17,7 km/h (3 Bft)
10.03.2014 14:40 19,8 C 28 % 1023,5 hPa 0,0 l/m 8,5 km/h (2 Bft) O 90 5 min 0,000 mm 1,6 UV-I 482 W/m 0,8 C 18,9 C 20,9 km/h (4 Bft)
10.03.2014 14:45 19,2 C 30 % 1023,4 hPa 0,0 l/m 9,6 km/h (2 Bft) NO 45 5 min 0,000 mm 1,5 UV-I 485 W/m 1,2 C 17,9 C 16,1 km/h (3 Bft)
10.03.2014 14:50 19,3 C 29 % 1023,5 hPa 0,0 l/m 6,7 km/h (2 Bft) NO 51 5 min 0,000 mm 1,5 UV-I 478 W/m 0,8 C 19,2 C 14,5 km/h (3 Bft)
10.03.2014 14:55 19,3 C 29 % 1023,6 hPa 0,0 l/m 5,2 km/h (1 Bft) O-SO 103 5 min 0,000 mm 1,4 UV-I 466 W/m 0,8 C 19,3 C 12,9 km/h (3 Bft)
10.03.2014 15:00 19,1 C 26 % 1023,6 hPa 0,0 l/m 7,2 km/h (2 Bft) O-NO 61 5 min 0,000 mm 1,4 UV-I 459 W/m -0,8 C 18,7 C 14,5 km/h (3 Bft)
10.03.2014 15:05 18,4 C 28 % 1023,6 hPa 0,0 l/m 8,7 km/h (2 Bft) O 80 5 min 0,356 mm 1,3 UV-I 448 W/m -0,4 C 17,4 C 16,1 km/h (3 Bft)
10.03.2014 15:10 18,5 C 27 % 1023,6 hPa 0,0 l/m 9,2 km/h (2 Bft) O 80 5 min 0,000 mm 1,3 UV-I 443 W/m -0,8 C 17,3 C 16,1 km/h (3 Bft)
10.03.2014 15:15 17,9 C 28 % 1023,6 hPa 0,0 l/m 10,2 km/h (2 Bft) O 92 5 min 0,000 mm 1,2 UV-I 432 W/m -0,9 C 16,2 C 16,1 km/h (3 Bft)
10.03.2014 15:20 17,8 C 27 % 1023,6 hPa 0,0 l/m 8,6 km/h (2 Bft) NO 55 5 min 0,000 mm 1,2 UV-I 422 W/m -1,4 C 16,8 C 16,1 km/h (3 Bft)
10.03.2014 15:25 18,6 C 28 % 1023,6 hPa 0,0 l/m 8,1 km/h (2 Bft) O-NO 65 5 min 0,000 mm 1,1 UV-I 410 W/m -0,3 C 17,8 C 17,7 km/h (3 Bft)
10.03.2014 15:30 18,4 C 28 % 1023,6 hPa 0,0 l/m 9,5 km/h (2 Bft) NO 54 5 min 0,000 mm 1,1 UV-I 403 W/m -0,4 C 17,1 C 17,7 km/h (3 Bft)
10.03.2014 15:35 18,6 C 29 % 1023,6 hPa 0,0 l/m 7,1 km/h (2 Bft) O-NO 76 5 min 0,000 mm 1,0 UV-I 390 W/m 0,2 C 18,3 C 14,5 km/h (3 Bft)
10.03.2014 15:40 18,3 C 30 % 1023,6 hPa 0,0 l/m 4,1 km/h (1 Bft) O 89 5 min 0,000 mm 1,0 UV-I 381 W/m 0,4 C 18,3 C 9,7 km/h (2 Bft)
10.03.2014 15:45 18,3 C 30 % 1023,5 hPa 0,0 l/m 9,2 km/h (2 Bft) NO 53 5 min 0,000 mm 0,9 UV-I 367 W/m 0,4 C 17,1 C 16,1 km/h (3 Bft)
10.03.2014 15:50 18,8 C 30 % 1023,5 hPa 0,0 l/m 6,2 km/h (2 Bft) O 81 5 min 0,000 mm 0,9 UV-I 359 W/m 0,9 C 18,8 C 14,5 km/h (3 Bft)
10.03.2014 15:55 18,8 C 30 % 1023,3 hPa 0,0 l/m 3,2 km/h (1 Bft) O 82 5 min 0,000 mm 0,8 UV-I 346 W/m 0,9 C 18,8 C 8,0 km/h (2 Bft)
10.03.2014 16:00 19,3 C 29 % 1023,4 hPa 0,0 l/m 2,4 km/h (1 Bft) N 355 5 min 0,000 mm 0,8 UV-I 334 W/m 0,8 C 19,3 C 8,0 km/h (2 Bft)
10.03.2014 16:05 19,3 C 30 % 1023,3 hPa 0,0 l/m 4,8 km/h (1 Bft) O-SO 105 5 min 0,304 mm 0,7 UV-I 323 W/m 1,3 C 19,3 C 11,3 km/h (2 Bft)
10.03.2014 16:10 18,7 C 31 % 1023,3 hPa 0,0 l/m 5,0 km/h (1 Bft) O 90 5 min 0,000 mm 0,7 UV-I 309 W/m 1,2 C 18,7 C 12,9 km/h (3 Bft)
10.03.2014 16:15 18,6 C 33 % 1023,4 hPa 0,0 l/m 4,9 km/h (1 Bft) O 86 5 min 0,000 mm 0,6 UV-I 299 W/m 2,0 C 18,6 C 11,3 km/h (2 Bft)
10.03.2014 16:20 18,7 C 32 % 1023,4 hPa 0,0 l/m 5,8 km/h (2 Bft) NO 55 5 min 0,000 mm 0,6 UV-I 285 W/m 1,7 C 18,7 C 12,9 km/h (3 Bft)
10.03.2014 16:25 18,5 C 32 % 1023,4 hPa 0,0 l/m 6,1 km/h (2 Bft) O-NO 59 5 min 0,000 mm 0,6 UV-I 271 W/m 1,5 C 18,5 C 11,3 km/h (2 Bft)
10.03.2014 16:30 18,6 C 31 % 1023,4 hPa 0,0 l/m 4,6 km/h (1 Bft) NO 42 5 min 0,000 mm 0,5 UV-I 257 W/m 1,1 C 18,6 C 8,0 km/h (2 Bft)
10.03.2014 16:35 18,8 C 31 % 1023,5 hPa 0,0 l/m 3,3 km/h (1 Bft) O 81 5 min 0,000 mm 0,5 UV-I 243 W/m 1,3 C 18,8 C 8,0 km/h (2 Bft)
10.03.2014 16:40 19,4 C 30 % 1023,5 hPa 0,0 l/m 2,3 km/h (1 Bft) NO 50 5 min 0,000 mm 0,5 UV-I 229 W/m 1,4 C 19,4 C 11,3 km/h (2 Bft)
10.03.2014 16:45 19,3 C 32 % 1023,6 hPa 0,0 l/m 2,1 km/h (1 Bft) NO 40 5 min 0,000 mm 0,0 UV-I 214 W/m 2,2 C 19,3 C 8,0 km/h (2 Bft)
10.03.2014 16:50 19,3 C 31 % 1023,7 hPa 0,0 l/m 2,3 km/h (1 Bft) O-NO 59 5 min 0,000 mm 0,0 UV-I 200 W/m 1,8 C 19,3 C 12,9 km/h (3 Bft)
10.03.2014 16:55 18,8 C 32 % 1023,7 hPa 0,0 l/m 5,6 km/h (1 Bft) O-SO 113 5 min 0,000 mm 0,0 UV-I 186 W/m 1,8 C 18,8 C 12,9 km/h (3 Bft)
10.03.2014 17:00 18,2 C 34 % 1023,8 hPa 0,0 l/m 6,9 km/h (2 Bft) O-NO 63 5 min 0,000 mm 0,0 UV-I 167 W/m 2,1 C 18,0 C 14,5 km/h (3 Bft)
10.03.2014 17:05 17,7 C 36 % 1023,9 hPa 0,0 l/m 7,1 km/h (2 Bft) O 96 5 min 0,204 mm 0,0 UV-I 151 W/m 2,4 C 17,4 C 12,9 km/h (3 Bft)
10.03.2014 17:10 17,4 C 37 % 1023,9 hPa 0,0 l/m 5,2 km/h (1 Bft) NO 51 5 min 0,000 mm 0,0 UV-I 134 W/m 2,6 C 17,4 C 11,3 km/h (2 Bft)
10.03.2014 17:15 17,1 C 38 % 1023,8 hPa 0,0 l/m 9,2 km/h (2 Bft) O 81 5 min 0,000 mm 0,0 UV-I 120 W/m 2,7 C 15,8 C 14,5 km/h (3 Bft)
10.03.2014 17:20 16,8 C 39 % 1023,8 hPa 0,0 l/m 6,9 km/h (2 Bft) O-NO 68 5 min 0,000 mm 0,0 UV-I 105 W/m 2,8 C 16,5 C 12,9 km/h (3 Bft)
10.03.2014 17:25 16,9 C 40 % 1023,9 hPa 0,0 l/m 5,1 km/h (1 Bft) NO 51 5 min 0,000 mm 0,0 UV-I 93 W/m 3,2 C 16,9 C 11,3 km/h (2 Bft)
10.03.2014 17:30 16,9 C 40 % 1023,9 hPa 0,0 l/m 5,2 km/h (1 Bft) O-NO 57 5 min 0,000 mm 0,0 UV-I 81 W/m 3,2 C 16,9 C 11,3 km/h (2 Bft)
10.03.2014 17:35 16,8 C 41 % 1023,9 hPa 0,0 l/m 3,5 km/h (1 Bft) NO 55 5 min 0,000 mm 0,0 UV-I 69 W/m 3,5 C 16,8 C 11,3 km/h (2 Bft)
10.03.2014 17:40 16,5 C 42 % 1023,9 hPa 0,0 l/m 4,5 km/h (1 Bft) NO 42 5 min 0,000 mm 0,0 UV-I 58 W/m 3,5 C 16,5 C 8,0 km/h (2 Bft)
10.03.2014 17:45 16,3 C 43 % 1024,0 hPa 0,0 l/m 3,6 km/h (1 Bft) O-NO 61 0 min 0,000 mm 0,0 UV-I 47 W/m 3,7 C 16,3 C 6,4 km/h (2 Bft)
10.03.2014 17:50 16,2 C 43 % 1023,9 hPa 0,0 l/m 1,6 km/h (1 Bft) NO 44 0 min 0,000 mm 0,0 UV-I 37 W/m 3,6 C 16,2 C 6,4 km/h (2 Bft)
10.03.2014 17:55 16,2 C 43 % 1024,0 hPa 0,0 l/m 0,5 km/h (0 Bft) NO 44 0 min 0,000 mm 0,0 UV-I 30 W/m 3,6 C 16,2 C 6,4 km/h (2 Bft)
10.03.2014 18:00 16,2 C 43 % 1024,1 hPa 0,0 l/m 0,3 km/h (0 Bft) NO 44 0 min 0,000 mm 0,0 UV-I 23 W/m 3,6 C 16,2 C 3,2 km/h (1 Bft)
10.03.2014 18:05 16,2 C 44 % 1024,1 hPa 0,0 l/m 0,0 km/h (0 Bft) NO 44 0 min 0,101 mm 0,0 UV-I 16 W/m 3,9 C 16,2 C 1,6 km/h (1 Bft)
10.03.2014 18:10 16,1 C 44 % 1024,1 hPa 0,0 l/m 0,0 km/h (0 Bft) NO 44 5 min 0,000 mm 0,0 UV-I 12 W/m 3,8 C 16,1 C 0,0 km/h (0 Bft)
10.03.2014 18:15 15,9 C 45 % 1024,1 hPa 0,0 l/m 0,0 km/h (0 Bft) NO 44 0 min 0,000 mm 0,0 UV-I 7 W/m 4,0 C 15,9 C 0,0 km/h (0 Bft)
10.03.2014 18:20 15,7 C 45 % 1024,2 hPa 0,0 l/m 0,0 km/h (0 Bft) NO 44 0 min 0,000 mm 0,0 UV-I 5 W/m 3,8 C 15,7 C 0,0 km/h (0 Bft)
10.03.2014 18:25 15,3 C 46 % 1024,3 hPa 0,0 l/m 0,0 km/h (0 Bft) NO 44 0 min 0,000 mm 0,0 UV-I 0 W/m 3,8 C 15,3 C 1,6 km/h (1 Bft)
10.03.2014 18:30 15,0 C 48 % 1024,3 hPa 0,0 l/m 0,0 km/h (0 Bft) NO 44 0 min 0,000 mm 0,0 UV-I 0 W/m 4,1 C 15,0 C 0,0 km/h (0 Bft)
10.03.2014 18:35 14,7 C 48 % 1024,4 hPa 0,0 l/m 0,0 km/h (0 Bft) NO 44 0 min 0,000 mm 0,0 UV-I 0 W/m 3,8 C 14,7 C 0,0 km/h (0 Bft)
10.03.2014 18:40 14,4 C 50 % 1024,5 hPa 0,0 l/m 0,0 km/h (0 Bft) NO 44 0 min 0,000 mm 0,0 UV-I 0 W/m 4,1 C 14,4 C 0,0 km/h (0 Bft)
10.03.2014 18:45 14,1 C 50 % 1024,5 hPa 0,0 l/m 0,0 km/h (0 Bft) NO 44 0 min 0,000 mm 0,0 UV-I 0 W/m 3,8 C 14,1 C 0,0 km/h (0 Bft)
10.03.2014 18:50 13,7 C 51 % 1024,6 hPa 0,0 l/m 0,0 km/h (0 Bft) NO 44 0 min 0,000 mm 0,0 UV-I 0 W/m 3,8 C 13,7 C 0,0 km/h (0 Bft)
10.03.2014 18:55 13,3 C 53 % 1024,7 hPa 0,0 l/m 0,0 km/h (0 Bft) NO 44 0 min 0,000 mm 0,0 UV-I 0 W/m 3,9 C 13,3 C 0,0 km/h (0 Bft)
10.03.2014 19:00 13,1 C 54 % 1024,7 hPa 0,0 l/m 0,0 km/h (0 Bft) NO 44 0 min 0,000 mm 0,0 UV-I 0 W/m 4,0 C 13,1 C 0,0 km/h (0 Bft)
10.03.2014 19:05 12,8 C 54 % 1024,7 hPa 0,0 l/m 0,0 km/h (0 Bft) NO 44 0 min 0,000 mm 0,0 UV-I 0 W/m 3,7 C 12,8 C 0,0 km/h (0 Bft)
10.03.2014 19:10 12,5 C 56 % 1024,8 hPa 0,0 l/m 0,0 km/h (0 Bft) NO 44 0 min 0,000 mm 0,0 UV-I 0 W/m 4,0 C 12,5 C 0,0 km/h (0 Bft)
10.03.2014 19:15 12,3 C 56 % 1024,8 hPa 0,0 l/m 0,0 km/h (0 Bft) NO 44 0 min 0,000 mm 0,0 UV-I 0 W/m 3,8 C 12,3 C 0,0 km/h (0 Bft)
10.03.2014 19:20 12,0 C 56 % 1024,8 hPa 0,0 l/m 0,0 km/h (0 Bft) NO 44 0 min 0,000 mm 0,0 UV-I 0 W/m 3,5 C 12,0 C 0,0 km/h (0 Bft)
10.03.2014 19:25 11,8 C 58 % 1024,8 hPa 0,0 l/m 0,0 km/h (0 Bft) NO 44 0 min 0,000 mm 0,0 UV-I 0 W/m 3,8 C 11,8 C 0,0 km/h (0 Bft)
10.03.2014 19:30 11,6 C 58 % 1024,8 hPa 0,0 l/m 0,0 km/h (0 Bft) NO 44 0 min 0,000 mm 0,0 UV-I 0 W/m 3,6 C 11,6 C 0,0 km/h (0 Bft)
10.03.2014 19:35 11,3 C 58 % 1024,8 hPa 0,0 l/m 0,0 km/h (0 Bft) NO 44 0 min 0,000 mm 0,0 UV-I 0 W/m 3,3 C 11,3 C 0,0 km/h (0 Bft)
10.03.2014 19:40 11,1 C 60 % 1024,9 hPa 0,0 l/m 0,0 km/h (0 Bft) NO 44 0 min 0,000 mm 0,0 UV-I 0 W/m 3,6 C 11,1 C 0,0 km/h (0 Bft)
10.03.2014 19:45 10,8 C 60 % 1024,9 hPa 0,0 l/m 0,0 km/h (0 Bft) NO 44 0 min 0,000 mm 0,0 UV-I 0 W/m 3,4 C 10,8 C 0,0 km/h (0 Bft)
10.03.2014 19:50 10,6 C 60 % 1024,9 hPa 0,0 l/m 0,0 km/h (0 Bft) NO 44 0 min 0,000 mm 0,0 UV-I 0 W/m 3,2 C 10,6 C 0,0 km/h (0 Bft)
10.03.2014 19:55 10,4 C 61 % 1024,9 hPa 0,0 l/m 0,0 km/h (0 Bft) NO 44 0 min 0,000 mm 0,0 UV-I 0 W/m 3,2 C 10,4 C 0,0 km/h (0 Bft)
10.03.2014 20:00 10,1 C 62 % 1024,9 hPa 0,0 l/m 0,0 km/h (0 Bft) NO 44 0 min 0,000 mm 0,0 UV-I 0 W/m 3,2 C 10,1 C 0,0 km/h (0 Bft)
10.03.2014 20:05 9,8 C 63 % 1024,8 hPa 0,0 l/m 0,0 km/h (0 Bft) NO 44 0 min 0,026 mm 0,0 UV-I 0 W/m 3,1 C 9,8 C 0,0 km/h (0 Bft)
10.03.2014 20:10 9,5 C 64 % 1024,9 hPa 0,0 l/m 0,0 km/h (0 Bft) NO 44 0 min 0,000 mm 0,0 UV-I 0 W/m 3,0 C 9,5 C 0,0 km/h (0 Bft)
10.03.2014 20:15 9,3 C 65 % 1024,9 hPa 0,0 l/m 0,0 km/h (0 Bft) NO 44 0 min 0,000 mm 0,0 UV-I 0 W/m 3,1 C 9,3 C 0,0 km/h (0 Bft)
10.03.2014 20:20 9,1 C 65 % 1024,9 hPa 0,0 l/m 0,0 km/h (0 Bft) NO 44 0 min 0,000 mm 0,0 UV-I 0 W/m 2,9 C 9,1 C 0,0 km/h (0 Bft)
10.03.2014 20:25 9,0 C 66 % 1024,8 hPa 0,0 l/m 0,0 km/h (0 Bft) NO 44 0 min 0,000 mm 0,0 UV-I 0 W/m 3,0 C 9,0 C 0,0 km/h (0 Bft)
10.03.2014 20:30 8,9 C 66 % 1024,9 hPa 0,0 l/m 0,0 km/h (0 Bft) NO 44 0 min 0,000 mm 0,0 UV-I 0 W/m 2,9 C 8,9 C 0,0 km/h (0 Bft)
10.03.2014 20:35 8,8 C 66 % 1024,9 hPa 0,0 l/m 0,0 km/h (0 Bft) NO 44 0 min 0,000 mm 0,0 UV-I 0 W/m 2,8 C 8,8 C 0,0 km/h (0 Bft)
10.03.2014 20:40 8,6 C 66 % 1024,9 hPa 0,0 l/m 0,0 km/h (0 Bft) NO 44 0 min 0,000 mm 0,0 UV-I 0 W/m 2,6 C 8,6 C 0,0 km/h (0 Bft)
10.03.2014 20:45 8,4 C 67 % 1024,9 hPa 0,0 l/m 0,0 km/h (0 Bft) NO 44 0 min 0,000 mm 0,0 UV-I 0 W/m 2,6 C 8,4 C 0,0 km/h (0 Bft)
10.03.2014 20:50 8,2 C 68 % 1025,0 hPa 0,0 l/m 0,0 km/h (0 Bft) NO 44 0 min 0,000 mm 0,0 UV-I 0 W/m 2,7 C 8,2 C 0,0 km/h (0 Bft)
10.03.2014 20:55 8,1 C 68 % 1025,0 hPa 0,0 l/m 0,0 km/h (0 Bft) NO 44 0 min 0,000 mm 0,0 UV-I 0 W/m 2,6 C 8,1 C 0,0 km/h (0 Bft)
10.03.2014 21:00 7,9 C 68 % 1024,9 hPa 0,0 l/m 0,0 km/h (0 Bft) NO 44 0 min 0,000 mm 0,0 UV-I 0 W/m 2,4 C 7,9 C 0,0 km/h (0 Bft)
10.03.2014 21:05 7,8 C 68 % 1025,0 hPa 0,0 l/m 0,0 km/h (0 Bft) NO 44 0 min 0,025 mm 0,0 UV-I 0 W/m 2,3 C 7,8 C 0,0 km/h (0 Bft)
10.03.2014 21:10 7,6 C 69 % 1024,9 hPa 0,0 l/m 0,0 km/h (0 Bft) NO 44 0 min 0,000 mm 0,0 UV-I 0 W/m 2,3 C 7,6 C 0,0 km/h (0 Bft)
10.03.2014 21:15 7,3 C 70 % 1024,9 hPa 0,0 l/m 0,0 km/h (0 Bft) NO 44 0 min 0,000 mm 0,0 UV-I 0 W/m 2,2 C 7,3 C 0,0 km/h (0 Bft)
10.03.2014 21:20 7,1 C 71 % 1024,8 hPa 0,0 l/m 0,0 km/h (0 Bft) NO 44 0 min 0,000 mm 0,0 UV-I 0 W/m 2,2 C 7,1 C 0,0 km/h (0 Bft)
10.03.2014 21:25 6,9 C 72 % 1024,8 hPa 0,0 l/m 0,0 km/h (0 Bft) NO 44 0 min 0,000 mm 0,0 UV-I 0 W/m 2,2 C 6,9 C 0,0 km/h (0 Bft)
10.03.2014 21:30 6,8 C 72 % 1024,8 hPa 0,0 l/m 0,0 km/h (0 Bft) NO 44 0 min 0,000 mm 0,0 UV-I 0 W/m 2,1 C 6,8 C 0,0 km/h (0 Bft)
10.03.2014 21:35 6,7 C 72 % 1024,8 hPa 0,0 l/m 0,0 km/h (0 Bft) NO 44 0 min 0,000 mm 0,0 UV-I 0 W/m 2,0 C 6,7 C 0,0 km/h (0 Bft)
10.03.2014 21:40 6,6 C 72 % 1024,9 hPa 0,0 l/m 0,0 km/h (0 Bft) NO 44 0 min 0,000 mm 0,0 UV-I 0 W/m 1,9 C 6,6 C 0,0 km/h (0 Bft)
10.03.2014 21:45 6,3 C 73 % 1024,9 hPa 0,0 l/m 0,0 km/h (0 Bft) NO 44 0 min 0,000 mm 0,0 UV-I 0 W/m 1,8 C 6,3 C 0,0 km/h (0 Bft)
10.03.2014 21:50 6,1 C 74 % 1025,0 hPa 0,0 l/m 0,0 km/h (0 Bft) NO 44 0 min 0,000 mm 0,0 UV-I 0 W/m 1,8 C 6,1 C 0,0 km/h (0 Bft)
10.03.2014 21:55 6,0 C 74 % 1025,0 hPa 0,0 l/m 0,0 km/h (0 Bft) NO 44 0 min 0,000 mm 0,0 UV-I 0 W/m 1,7 C 6,0 C 0,0 km/h (0 Bft)
10.03.2014 22:00 5,9 C 74 % 1025,0 hPa 0,0 l/m 0,0 km/h (0 Bft) NO 44 0 min 0,000 mm 0,0 UV-I 0 W/m 1,6 C 5,9 C 0,0 km/h (0 Bft)
10.03.2014 22:05 5,8 C 75 % 1025,0 hPa 0,0 l/m 0,0 km/h (0 Bft) NO 44 0 min 0,025 mm 0,0 UV-I 0 W/m 1,7 C 5,8 C 0,0 km/h (0 Bft)
10.03.2014 22:10 5,6 C 76 % 1025,1 hPa 0,0 l/m 0,0 km/h (0 Bft) NO 44 0 min 0,000 mm 0,0 UV-I 0 W/m 1,7 C 5,6 C 0,0 km/h (0 Bft)
10.03.2014 22:15 5,5 C 76 % 1025,0 hPa 0,0 l/m 0,0 km/h (0 Bft) NO 44 0 min 0,000 mm 0,0 UV-I 0 W/m 1,6 C 5,5 C 1,6 km/h (1 Bft)
10.03.2014 22:20 5,4 C 76 % 1025,0 hPa 0,0 l/m 0,1 km/h (0 Bft) N-NO 28 0 min 0,000 mm 0,0 UV-I 0 W/m 1,5 C 5,4 C 1,6 km/h (1 Bft)
10.03.2014 22:25 5,4 C 76 % 1025,0 hPa 0,0 l/m 0,0 km/h (0 Bft) N-NO 28 0 min 0,000 mm 0,0 UV-I 0 W/m 1,5 C 5,4 C 0,0 km/h (0 Bft)
10.03.2014 22:30 5,2 C 76 % 1025,0 hPa 0,0 l/m 0,1 km/h (0 Bft) W-SW 254 0 min 0,000 mm 0,0 UV-I 0 W/m 1,3 C 5,2 C 3,2 km/h (1 Bft)
10.03.2014 22:35 5,2 C 76 % 1025,0 hPa 0,0 l/m 0,0 km/h (0 Bft) W-SW 254 0 min 0,000 mm 0,0 UV-I 0 W/m 1,3 C 5,2 C 0,0 km/h (0 Bft)
10.03.2014 22:40 5,2 C 76 % 1025,0 hPa 0,0 l/m 0,1 km/h (0 Bft) W 266 0 min 0,000 mm 0,0 UV-I 0 W/m 1,3 C 5,2 C 1,6 km/h (1 Bft)
10.03.2014 22:45 5,2 C 76 % 1025,1 hPa 0,0 l/m 0,0 km/h (0 Bft) W 266 0 min 0,000 mm 0,0 UV-I 0 W/m 1,3 C 5,2 C 0,0 km/h (0 Bft)
10.03.2014 22:50 5,2 C 76 % 1025,0 hPa 0,0 l/m 0,0 km/h (0 Bft) W 266 0 min 0,000 mm 0,0 UV-I 0 W/m 1,3 C 5,2 C 1,6 km/h (1 Bft)
10.03.2014 22:55 5,2 C 76 % 1025,0 hPa 0,0 l/m 0,0 km/h (0 Bft) W 266 0 min 0,000 mm 0,0 UV-I 0 W/m 1,3 C 5,2 C 0,0 km/h (0 Bft)
10.03.2014 23:00 5,1 C 76 % 1025,1 hPa 0,0 l/m 0,0 km/h (0 Bft) W 266 0 min 0,000 mm 0,0 UV-I 0 W/m 1,2 C 5,1 C 1,6 km/h (1 Bft)
10.03.2014 23:05 4,9 C 76 % 1025,2 hPa 0,0 l/m 0,0 km/h (0 Bft) W 266 0 min 0,026 mm 0,0 UV-I 0 W/m 1,0 C 4,9 C 0,0 km/h (0 Bft)
10.03.2014 23:10 4,8 C 76 % 1025,1 hPa 0,0 l/m 0,0 km/h (0 Bft) W 266 0 min 0,000 mm 0,0 UV-I 0 W/m 0,9 C 4,8 C 0,0 km/h (0 Bft)
10.03.2014 23:15 4,7 C 76 % 1025,2 hPa 0,0 l/m 0,0 km/h (0 Bft) W 266 0 min 0,000 mm 0,0 UV-I 0 W/m 0,8 C 4,7 C 0,0 km/h (0 Bft)
10.03.2014 23:20 4,6 C 77 % 1025,2 hPa 0,0 l/m 0,0 km/h (0 Bft) W 266 0 min 0,000 mm 0,0 UV-I 0 W/m 0,9 C 4,6 C 0,0 km/h (0 Bft)
10.03.2014 23:25 4,4 C 78 % 1025,4 hPa 0,0 l/m 0,0 km/h (0 Bft) W 266 0 min 0,000 mm 0,0 UV-I 0 W/m 0,9 C 4,4 C 0,0 km/h (0 Bft)
10.03.2014 23:30 4,2 C 78 % 1025,4 hPa 0,0 l/m 0,0 km/h (0 Bft) W 266 0 min 0,000 mm 0,0 UV-I 0 W/m 0,7 C 4,2 C 0,0 km/h (0 Bft)
10.03.2014 23:35 4,2 C 79 % 1025,5 hPa 0,0 l/m 0,0 km/h (0 Bft) W 266 0 min 0,000 mm 0,0 UV-I 0 W/m 0,9 C 4,2 C 0,0 km/h (0 Bft)
10.03.2014 23:40 4,1 C 78 % 1025,6 hPa 0,0 l/m 0,0 km/h (0 Bft) W 266 0 min 0,000 mm 0,0 UV-I 0 W/m 0,6 C 4,1 C 0,0 km/h (0 Bft)
10.03.2014 23:45 3,9 C 78 % 1025,6 hPa 0,0 l/m 0,0 km/h (0 Bft) W 266 0 min 0,000 mm 0,0 UV-I 0 W/m 0,4 C 3,9 C 0,0 km/h (0 Bft)
10.03.2014 23:50 3,8 C 79 % 1025,6 hPa 0,0 l/m 0,0 km/h (0 Bft) W 266 0 min 0,000 mm 0,0 UV-I 0 W/m 0,5 C 3,8 C 0,0 km/h (0 Bft)
10.03.2014 23:55 3,9 C 79 % 1025,6 hPa 0,0 l/m 0,0 km/h (0 Bft) W 266 0 min 0,000 mm 0,0 UV-I 0 W/m 0,6 C 3,9 C 0,0 km/h (0 Bft)
_ Min-Zeit 07:15 15:00 15:55 - 00:00 - - - - - - 06:35 06:45 00:00
Minimum _ -1,8 C 26 % 1023,3 hPa - 0,0 km/h (0 Bft) - - - - - - -2,9 C -1,7 C 0,0 km/h (0 Bft)
_ Max-Zeit 14:40 05:45 00:00 08:15 15:15 - - 08:00 14:05 12:20 12:40 11:00 14:35 14:40
Maximum _ 20,2 C 93 % 1028,9 hPa 0,2 l/m 10,2 km/h
O (2 Bft)
- - 5 min 0,356 mm 2,4 UV-I 580 W/m 4,8 C 19,8 C 20,9 km/h
O-NO (4 Bft)
Durchschnitt _ 8,0 C 66 % 1025,8 hPa #0,2 l/m 1,3 km/h (1 Bft) O-NO - #9:50 h #2,464 mm 1,5 UV-I 335 W/m 0,7 C 7,9 C 3,5 km/h (1 Bft)